Saturday, January 20, 2018, 8:19 AM EST
Back to Local

KPNE, N.e. Philadelphia Airport

Location: Philadelphia, PA, United States Lat: 40.083
Local Time: 8:19 AM EST (13:19 GMT) Lon: -75.017
Time Zone: US/Eastern Elev: 121 ft

Show me the last for .
Show Coded

Time T Td Feel RH Dir Speed Gust Alt SLP Vis Weather Sky Remarks
2018-01-20 07:54 38 24 31 56 250° 9 - 29.95 29.95 10 CLR None
2018-01-20 06:54 38 23 31 54 240° 9 - 29.94 29.94 10 CLR 6-hr Min Temp (7am): 32.0°F
6-hr Max Temp (7am): 37.9°F
2018-01-20 05:54 32 21 29 63 210° 3 - 29.95 29.95 10 CLR None
2018-01-20 04:54 34 21 29 58 210° 6 - 29.95 29.96 10 CLR None
2018-01-20 03:54 34 20 29 55 210° 6 - 29.96 29.96 10 CLR None
2018-01-20 01:54 37 18 32 45 230° 6 - 29.97 29.97 10 CLR None
2018-01-20 00:54 38 18 33 43 220° 6 - 29.98 29.98 10 CLR 6-hr Min Temp (1am): 37.0°F
6-hr Max Temp (1am): 41.0°F
2018-01-19 23:54 38 19 33 46 240° 6 - 30.00 30.00 10 CLR 24-hr Min Temp (12am): 19.9°F
24-hr Max Temp (12am): 46.0°F
2018-01-19 22:54 39 19 33 44 240° 8 - 30.01 30.01 10 CLR None
2018-01-19 21:54 41 20 34 42 240° 12 - 30.01 30.01 10 CLR None
2018-01-19 20:54 41 21 35 44 240° 10 - 30.02 30.02 10 CLR None
2018-01-19 19:54 38 21 33 50 240° 6 - 30.02 30.02 10 CLR None
2018-01-19 18:54 39 20 36 45 230° 5 - 30.03 30.03 10 CLR 6-hr Min Temp (7pm): 37.9°F
6-hr Max Temp (7pm): 46.0°F
2018-01-19 17:54 41 19 - 40 - Calm - 30.03 30.03 10 CLR None
2018-01-19 16:54 43 20 37 39 250° 10 - 30.02 30.02 10 CLR None
2018-01-19 15:54 45 19 40 35 240° 10 - 30.02 30.02 10 CLR None
2018-01-19 14:54 45 19 39 35 260° 14 - 30.02 30.02 10 CLR None
2018-01-19 13:54 45 19 41 35 280° 8 - 30.04 30.04 10 CLR None
2018-01-19 12:54 41 18 33 38 270° 15 - 30.06 30.06 10 CLR 6-hr Min Temp (1pm): 19.9°F
6-hr Max Temp (1pm): 42.1°F
2018-01-19 11:54 40 18 31 40 270° 16 - 30.09 30.09 10 CLR None
2018-01-19 10:54 38 17 31 42 270° 9 - 30.12 30.12 10 CLR None
2018-01-19 09:54 36 19 31 49 240° 6 - 30.13 30.13 10 CLR None
2018-01-19 08:54 30 22 - 71 - Calm - 30.12 30.13 6 HZ CLR None

Support USWX by starting your Amazon purchase here.